createdAt,value
2023-03-19T00:00:36.133Z,40.10
2023-03-19T00:03:06.024Z,39.00
2023-03-19T00:05:35.991Z,39.20
2023-03-19T00:08:05.947Z,38.50
2023-03-19T00:10:35.803Z,37.50
2023-03-19T00:13:05.599Z,37.10
2023-03-19T00:15:35.716Z,37.30
2023-03-19T00:18:07.063Z,36.60
2023-03-19T00:20:37.434Z,36.10
2023-03-19T00:23:08.272Z,36.00
2023-03-19T00:25:38.222Z,35.70
2023-03-19T00:28:07.982Z,35.20
2023-03-19T00:30:38.057Z,34.80
2023-03-19T00:33:07.478Z,34.40
2023-03-19T00:35:36.997Z,34.20
2023-03-19T00:38:06.401Z,34.70
2023-03-19T00:40:35.787Z,34.20
2023-03-19T00:43:05.691Z,33.60
2023-03-19T00:45:35.427Z,33.30
2023-03-19T00:48:04.901Z,32.40
2023-03-19T00:50:34.638Z,33.00
2023-03-19T00:53:05.352Z,33.10
2023-03-19T00:55:35.379Z,32.00
2023-03-19T00:58:05.504Z,32.90
2023-03-19T01:03:03.477Z,32.70
2023-03-19T01:05:33.636Z,32.50
2023-03-19T01:08:04.561Z,32.90
2023-03-19T01:10:35.807Z,32.20
2023-03-19T01:13:05.212Z,31.60
2023-03-19T01:15:38.438Z,31.80
2023-03-19T01:18:08.503Z,31.00
2023-03-19T01:20:38.509Z,30.90
2023-03-19T01:23:09.141Z,31.80
2023-03-19T01:25:38.639Z,31.30
2023-03-19T01:28:09.267Z,31.50
2023-03-19T01:30:38.656Z,30.40
2023-03-19T01:33:08.691Z,30.60
2023-03-19T01:35:39.007Z,30.70
2023-03-19T01:38:09.537Z,30.50
2023-03-19T01:40:40.448Z,30.20
2023-03-19T01:43:20.916Z,30.10
2023-03-19T01:45:52.242Z,29.20
2023-03-19T01:48:26.426Z,29.30
2023-03-19T01:50:59.002Z,28.90
2023-03-19T01:53:30.664Z,28.30
2023-03-19T01:56:05.153Z,28.30
2023-03-19T01:58:35.150Z,28.30
2023-03-19T02:01:05.446Z,27.90
2023-03-19T02:03:36.259Z,28.10
2023-03-19T02:06:05.856Z,27.40
2023-03-19T02:08:36.049Z,27.30
2023-03-19T02:11:05.979Z,27.10
2023-03-19T02:13:36.475Z,26.50
2023-03-19T02:51:39.177Z,23.90
2023-03-19T02:54:08.957Z,22.40
2023-03-19T02:56:38.343Z,23.50
2023-03-19T02:59:08.406Z,23.20
2023-03-19T03:01:38.274Z,22.10
2023-03-19T03:04:07.792Z,20.70
2023-03-19T03:06:37.392Z,20.60
2023-03-19T03:09:07.086Z,20.70
2023-03-19T03:11:36.402Z,20.80
2023-03-19T03:14:08.340Z,20.00
2023-03-19T03:16:39.276Z,19.90
2023-03-19T03:19:09.274Z,19.50
2023-03-19T03:21:38.613Z,19.70
2023-03-19T03:24:08.276Z,19.70
2023-03-19T03:26:41.411Z,19.10
2023-03-19T03:29:10.889Z,19.00
2023-03-19T03:31:40.780Z,18.80
2023-03-19T03:34:10.597Z,18.80
2023-03-19T03:36:40.254Z,19.30
2023-03-19T03:39:09.815Z,18.70
2023-03-19T03:41:39.160Z,18.00
2023-03-19T03:44:10.093Z,18.40
2023-03-19T03:46:40.691Z,18.60
2023-03-19T03:49:10.293Z,18.40
2023-03-19T03:51:40.127Z,18.30
2023-03-19T03:54:09.874Z,18.20
2023-03-19T03:56:39.335Z,17.80
2023-03-19T03:59:09.718Z,18.00
2023-03-19T04:01:39.102Z,18.10
2023-03-19T04:04:08.495Z,17.60
2023-03-19T04:06:37.876Z,17.40
2023-03-19T04:09:09.687Z,17.90
2023-03-19T04:11:39.025Z,17.70
2023-03-19T04:14:09.872Z,18.10
2023-03-19T04:16:39.913Z,17.40
2023-03-19T04:19:09.335Z,18.20
2023-03-19T04:21:38.786Z,17.70
2023-03-19T04:24:08.277Z,17.90
2023-03-19T04:26:38.225Z,17.90
2023-03-19T04:29:08.204Z,17.10
2023-03-19T04:31:37.956Z,17.20
2023-03-19T04:34:07.931Z,17.20
2023-03-19T04:36:37.302Z,17.90
2023-03-19T04:39:08.150Z,18.20
2023-03-19T04:41:37.810Z,18.20
2023-03-19T04:44:07.848Z,17.70
2023-03-19T09:29:02.121Z,31.20
2023-03-19T09:31:31.939Z,31.90
2023-03-19T09:34:01.643Z,31.50
2023-03-19T09:36:31.515Z,31.70
2023-03-19T09:39:01.218Z,31.70
2023-03-19T09:41:33.593Z,32.00
2023-03-19T09:44:04.226Z,31.90
2023-03-19T09:46:46.200Z,32.50
2023-03-19T09:49:30.940Z,32.40
2023-03-19T09:52:00.294Z,32.80
2023-03-19T09:54:38.829Z,33.30
2023-03-19T09:57:12.180Z,33.30
2023-03-19T09:59:42.834Z,33.70
2023-03-19T10:02:13.457Z,33.70
2023-03-19T10:04:54.987Z,33.90
2023-03-19T10:07:37.402Z,33.60
2023-03-19T10:10:19.234Z,34.00
2023-03-19T10:12:50.007Z,34.00
2023-03-19T10:15:28.893Z,33.90
2023-03-19T10:18:00.851Z,33.80
2023-03-19T10:20:38.852Z,33.90
2023-03-19T10:23:26.850Z,34.30
2023-03-19T10:25:57.242Z,35.00
2023-03-19T10:28:28.441Z,35.00
2023-03-19T10:31:17.166Z,34.80
2023-03-19T10:33:48.156Z,35.10
2023-03-19T10:36:18.061Z,35.00
2023-03-19T10:38:47.900Z,34.90
2023-03-19T10:41:23.889Z,34.90
2023-03-19T10:43:55.506Z,34.60
2023-03-19T10:46:25.186Z,34.70
2023-03-19T10:48:54.757Z,34.80
2023-03-19T10:51:28.889Z,35.00
2023-03-19T10:53:58.506Z,35.20
2023-03-19T10:56:31.672Z,35.50
2023-03-19T10:59:04.206Z,35.50
2023-03-19T11:01:38.056Z,35.70
2023-03-19T11:04:19.607Z,35.20
2023-03-19T11:06:52.696Z,34.90
2023-03-19T11:09:21.996Z,34.90
2023-03-19T11:11:56.348Z,35.30
2023-03-19T11:14:25.659Z,35.60
2023-03-19T11:17:05.717Z,35.80
2023-03-19T11:19:36.941Z,35.80
2023-03-19T11:22:24.707Z,36.10
2023-03-19T11:24:56.164Z,36.30
2023-03-19T11:27:33.057Z,36.70
2023-03-19T11:30:02.859Z,36.70
2023-03-19T11:32:35.806Z,37.20
2023-03-19T11:35:19.745Z,37.50
2023-03-19T11:38:02.789Z,37.70
2023-03-19T11:40:35.729Z,37.80
2023-03-19T11:43:09.394Z,37.80
2023-03-19T11:45:46.578Z,37.40
2023-03-19T11:48:27.787Z,38.30
2023-03-19T11:51:10.585Z,39.50
2023-03-19T11:53:56.576Z,39.00
2023-03-19T11:56:37.636Z,39.30
2023-03-19T11:59:16.447Z,39.30
2023-03-19T12:01:52.717Z,39.30
2023-03-19T12:04:28.227Z,39.20
2023-03-19T12:07:02.486Z,39.50
2023-03-19T12:09:39.979Z,39.40
2023-03-19T12:12:18.787Z,39.40
2023-03-19T12:15:04.867Z,39.20
2023-03-19T12:17:43.253Z,40.20
2023-03-19T12:20:25.373Z,39.70
2023-03-19T12:23:02.023Z,39.70
2023-03-19T12:25:39.088Z,39.60
2023-03-19T12:28:25.572Z,40.30
2023-03-19T12:31:06.511Z,40.10
2023-03-19T12:33:45.804Z,39.90
2023-03-19T12:36:17.672Z,40.70
2023-03-19T12:38:58.926Z,40.30
2023-03-19T12:41:30.368Z,40.10
2023-03-19T12:44:04.720Z,40.20
2023-03-19T12:46:50.306Z,40.00
2023-03-19T12:49:25.728Z,40.20
2023-03-19T12:51:58.757Z,40.60
2023-03-19T13:01:16.471Z,41.40
2023-03-19T13:03:46.246Z,41.80
2023-03-19T13:06:23.188Z,40.90
2023-03-19T13:08:57.422Z,41.40
2023-03-19T13:11:46.272Z,41.30
2023-03-19T13:14:22.228Z,41.80
2023-03-19T13:17:11.787Z,41.50
2023-03-19T13:19:47.567Z,42.80
2023-03-19T13:22:19.758Z,42.00
2023-03-19T13:24:50.081Z,42.40
2023-03-19T13:27:45.676Z,41.70
2023-03-19T13:30:15.807Z,42.50
2023-03-19T13:32:52.808Z,42.00
2023-03-19T13:35:47.353Z,42.70
2023-03-19T13:38:20.118Z,42.70
2023-03-19T13:40:59.699Z,42.20
2023-03-19T13:43:33.084Z,42.20
2023-03-19T13:46:14.544Z,42.20
2023-03-19T13:48:50.346Z,43.10
2023-03-19T13:51:27.350Z,43.10
2023-03-19T13:53:58.027Z,43.50
2023-03-19T13:56:30.672Z,43.40
2023-03-19T13:59:18.489Z,43.60
2023-03-19T16:46:47.849Z,49.60
2023-03-19T16:49:17.291Z,49.50
2023-03-19T16:51:47.898Z,49.50
2023-03-19T16:54:18.515Z,50.40
2023-03-19T16:56:48.009Z,50.00
2023-03-19T16:59:28.467Z,49.70
2023-03-19T17:01:57.977Z,49.90
2023-03-19T17:04:28.005Z,50.90
2023-03-19T17:06:57.652Z,51.00
2023-03-19T17:09:28.008Z,51.50
2023-03-19T17:11:57.435Z,51.20
2023-03-19T17:14:26.881Z,50.80
2023-03-19T17:16:56.914Z,50.20
2023-03-19T17:19:27.804Z,50.30
2023-03-19T17:21:59.277Z,50.20
2023-03-19T17:24:30.299Z,50.90
2023-03-19T17:27:01.116Z,50.80
2023-03-19T17:29:31.087Z,50.80
2023-03-19T17:32:04.389Z,51.70
2023-03-19T17:34:35.011Z,51.60
2023-03-19T17:37:08.728Z,51.10
2023-03-19T17:39:38.106Z,52.00
2023-03-19T17:42:18.787Z,52.10
2023-03-19T17:50:55.299Z,52.00
2023-03-19T17:53:26.038Z,52.30
2023-03-19T17:55:55.434Z,52.70
2023-03-19T17:58:24.915Z,52.80
2023-03-19T18:00:54.730Z,52.40
2023-03-19T18:03:24.910Z,53.40
2023-03-19T18:05:54.339Z,53.90
2023-03-19T18:08:26.627Z,53.70
2023-03-19T18:10:55.962Z,53.80
2023-03-19T18:13:26.322Z,53.60
2023-03-19T18:15:56.718Z,53.50
2023-03-19T18:18:26.085Z,53.30
2023-03-19T18:20:55.433Z,53.50
2023-03-19T18:23:26.259Z,53.40
2023-03-19T18:25:55.857Z,53.90
2023-03-19T18:28:25.324Z,54.50
2023-03-19T18:30:56.220Z,54.20
2023-03-19T18:33:28.340Z,54.30
2023-03-19T18:35:59.780Z,54.40
2023-03-19T18:38:29.206Z,54.10
2023-03-19T18:40:58.752Z,54.30
2023-03-19T18:43:28.115Z,54.80
2023-03-19T18:45:57.547Z,54.60
2023-03-19T18:48:32.972Z,55.30
2023-03-19T20:03:52.737Z,62.50
2023-03-19T20:06:22.908Z,62.40
2023-03-19T20:08:52.577Z,63.30
2023-03-19T20:11:26.245Z,63.40
2023-03-19T20:13:57.347Z,64.20
2023-03-19T20:16:28.182Z,64.80
2023-03-19T20:18:58.789Z,64.50
2023-03-19T20:21:28.540Z,65.30
2023-03-19T20:24:00.397Z,64.70
2023-03-19T20:26:30.848Z,65.40
2023-03-19T20:29:00.216Z,65.20
2023-03-19T20:31:34.552Z,65.30
2023-03-19T20:34:03.911Z,65.70
2023-03-19T20:36:33.337Z,65.80
2023-03-19T20:39:02.699Z,65.30
2023-03-19T20:41:32.045Z,65.80
2023-03-19T20:44:08.329Z,66.00
2023-03-19T20:46:38.206Z,67.30
2023-03-19T20:49:07.939Z,67.40
2023-03-19T20:51:37.378Z,67.40
2023-03-19T20:54:07.037Z,67.70
2023-03-19T20:56:39.778Z,67.50
2023-03-19T20:59:11.951Z,68.50
2023-03-19T21:01:41.356Z,68.10
2023-03-19T21:04:19.958Z,67.60
2023-03-19T21:06:53.456Z,67.10
2023-03-19T21:09:23.729Z,67.40
2023-03-19T21:11:54.501Z,66.80
2023-03-19T21:14:26.661Z,66.70
2023-03-19T21:16:57.575Z,66.70
2023-03-19T21:19:26.935Z,66.30
2023-03-19T21:21:56.427Z,65.70
2023-03-19T21:24:27.643Z,65.50
2023-03-19T21:26:58.455Z,66.20
2023-03-19T21:29:32.608Z,65.90
2023-03-19T21:32:02.357Z,66.90
2023-03-19T21:34:32.171Z,66.90
2023-03-19T21:37:01.540Z,67.10
2023-03-19T21:39:30.913Z,67.10
2023-03-19T21:42:00.719Z,67.20
2023-03-19T21:44:32.852Z,67.50
2023-03-19T21:47:05.560Z,67.30
2023-03-19T21:49:35.590Z,67.30
2023-03-19T21:52:05.014Z,67.90
2023-03-19T21:54:34.547Z,67.50
2023-03-19T21:57:03.874Z,67.70
2023-03-19T21:59:35.316Z,67.40
2023-03-19T22:02:05.918Z,67.10
2023-03-19T22:04:35.987Z,67.30
2023-03-19T22:07:05.757Z,67.60
2023-03-19T22:09:35.492Z,67.50
2023-03-19T22:12:04.853Z,67.10
2023-03-19T22:14:35.395Z,67.30
2023-03-19T22:17:05.338Z,67.20
2023-03-19T22:19:35.135Z,66.70
2023-03-19T22:22:04.516Z,66.40
2023-03-19T22:24:33.853Z,66.00
2023-03-19T22:27:03.444Z,66.30
2023-03-19T22:29:34.336Z,66.40
2023-03-19T22:32:04.212Z,66.50
2023-03-19T22:34:34.305Z,66.70
2023-03-19T22:37:04.503Z,66.90
2023-03-19T22:39:34.300Z,67.10
2023-03-19T22:42:03.638Z,67.00
2023-03-19T22:44:33.762Z,67.10
2023-03-19T22:47:04.014Z,66.70
2023-03-19T22:49:33.526Z,66.90
2023-03-19T22:52:03.626Z,67.00
2023-03-19T22:54:33.377Z,66.80
2023-03-19T22:57:02.729Z,66.80
2023-03-19T22:59:32.198Z,66.60
2023-03-19T23:02:01.822Z,66.70
2023-03-19T23:04:32.411Z,66.70
2023-03-19T23:07:03.297Z,66.70
2023-03-19T23:09:39.515Z,66.40
2023-03-19T23:14:38.370Z,65.90
2023-03-19T23:17:19.045Z,65.90
2023-03-19T23:19:48.916Z,65.50
2023-03-19T23:22:18.744Z,65.20
2023-03-19T23:24:48.598Z,64.90
2023-03-19T23:27:26.437Z,64.60
2023-03-19T23:29:56.044Z,64.60
2023-03-19T23:32:25.378Z,64.70
2023-03-19T23:35:00.628Z,64.00
2023-03-19T23:37:31.386Z,64.00
2023-03-19T23:40:00.894Z,63.50
2023-03-19T23:42:31.964Z,63.20
2023-03-19T23:45:03.590Z,63.20
2023-03-19T23:47:33.279Z,62.50
2023-03-19T23:50:03.144Z,62.90
2023-03-19T23:52:32.596Z,63.00
2023-03-19T23:55:01.940Z,63.00
2023-03-19T23:57:31.361Z,62.90
